HOURLY OBS INDEX

002

Kimberley - east

ARGYLE AERODROME

Site: 002064
Alt: 164.0m
101km SSW of KUNUNURRA


  Time     Wind        Temp  DP   Baro     Rain since   Rain past  Vis(m), Cloud(base in m), Weather
  local        km/h                         9am  last   hr   10m    
Mon 06:00  ------/---  14.5 -2.0  1020.0    0.0   0.0   0.0   0.0   10000 
Mon 06:30  ------/---  15.7 -1.8  1020.3    0.0   0.0   0.0   0.0   10000 
Mon 07:00  ------/---  18.7 -2.3  1020.7    0.0   0.0   0.0   0.0   10000 
Mon 07:30  ------/---  20.0 -3.0  1020.9    0.0   0.0   0.0   0.0   10000 
Mon 08:00  ------/---  20.6 -3.1  1021.1    0.0   0.0   0.0   0.0   10000 
Mon 08:30  ------/---  21.0 -3.5  1021.2    0.0   0.0   0.0   0.0   10000 
Mon 09:00  ------/---  21.6 -3.7  1021.2    0.0   0.0   0.0   0.0   10000 
Mon 09:30  ------/---  22.4 -3.1  1021.1    0.0   0.0   0.0   0.0   10000 
Mon 10:00  ------/---  23.0 -3.3  1020.7    0.0   0.0   0.0   0.0   10000 
Mon 10:30  ------/---  24.0 -3.3  1020.1    0.0   0.0   0.0   0.0   10000 

HALLS CREEK AIRPORT

Site: 002079
Alt: 409.4m
km of


  Time     Wind        Temp  DP   Baro     Rain since   Rain past  Vis(m), Cloud(base in m), Weather
  local        km/h                         9am  last   hr   10m    
Mon 06:00    E 17/ 26  15.2 -3.2  1020.1    0.0   0.0   0.0   0.0   10000 
Mon 06:30    E 17/ 24  15.9 -3.6  1020.6    0.0   0.0   0.0   0.0   10000 
Mon 07:00    E 17/ 26  16.9 -3.2  1021.0    0.0   0.0   0.0   0.0   10000 
Mon 07:30    E 24/ 35  17.6 -3.7  1021.4    0.0   0.0   0.0   0.0   10000 
Mon 08:00    E 26/ 39  18.3 -4.4  1021.8    0.0   0.0   0.0   0.0   10000 
Mon 08:30    E 24/ 33  19.6 -3.9  1022.0    0.0   0.0   0.0   0.0   10000 
Mon 09:00    E 37/ 48  19.2 -5.0  1021.9    0.0   0.0   0.0   0.0   10000 
Mon 09:30    E 32/ 41  19.8 -4.5  1021.9    0.0   0.0   0.0   0.0   10000 
Mon 10:00    E 30/ 35  20.7 -4.4  1021.3    0.0   0.0   0.0   0.0   10000 
Mon 10:30    E 28/ 37  21.3 -4.0  1020.7    0.0   0.0   0.0   0.0   10000 

KUNUNURRA AERO

Site: 002056
Alt: 44.0m
3km WSW of KUNUNURRA


  Time     Wind        Temp  DP   Baro     Rain since   Rain past  Vis(m), Cloud(base in m), Weather
  local        km/h                         9am  last   hr   10m    
Mon 06:00  SSE 15/ 20  19.0----  1017.7    0.0   0.0   0.0   0.0   10000 
Mon 06:30  SSE 13/ 19  19.4----  1018.1    0.0   0.0   0.0   0.0   10000 
Mon 07:00  SSE 15/ 20  20.1----  1018.4    0.0   0.0   0.0   0.0   10000 
Mon 07:30  SSE 17/ 24  21.1----  1018.8    0.0   0.0   0.0   0.0   10000 
Mon 08:00   SE 17/ 26  22.2----  1019.2    0.0   0.0   0.0   0.0   10000 
Mon 08:30   SE 26/ 35  22.8----  1019.4    0.0   0.0   0.0   0.0   10000 
Mon 09:00  ESE 26/ 37  23.2----  1019.5    0.0   0.0   0.0   0.0   10000 
Mon 09:30   SE 22/ 33  24.0----  1019.4    0.0   0.0   0.0   0.0   10000 
Mon 10:00   SE 26/ 37  24.0----  1018.9    0.0   0.0   0.0   0.0   10000 
Mon 10:30   SE 24/ 33  24.6----  1018.4    0.0   0.0   0.0   0.0   10000 

KUNUNURRA AG STATION

Site: 002GKN
Alt: m
km of


  Time     Wind        Temp  DP   Baro     Rain since   Rain past  Vis(m), Cloud(base in m), Weather
  local        km/h                         9am  last   hr   10m    
Mon 06:00    S  4/  7  16.9  0.6  ------    0.0   0.0   0.0   0.0   ----- 
Mon 06:30    S  4/  9  18.8  0.3  ------    0.0   0.0   0.0   0.0   ----- 
Mon 07:00    S  6/ 11  20.1  0.6  ------    0.0   0.0   0.0   0.0   ----- 
Mon 07:30  SSE  6/ 15  21.6 -0.2  ------    0.0   0.0   0.0   0.0   ----- 
Mon 08:00  SSE  9/ 17  22.5 -1.0  ------    0.0   0.0   0.0   0.0   ----- 
Mon 08:30   SE  7/ 17  23.4 -1.4  ------    0.0   0.0   0.0   0.0   ----- 
Mon 09:00   SE  9/ 20  24.0 -0.9  ------    0.0   0.0   0.0   0.0   ----- 
Mon 09:30   SE  9/ 22  24.7 -1.2  ------    0.0   0.0   0.0   0.0   ----- 
Mon 10:00  ESE  7/ 15  25.5 -0.8  ------    0.0   0.0   0.0   0.0   -----